Time;durP1;ratioP1;P1;durP2;ratioP2;P2;SDS_P1;SDS_P2;PMS_P1;PMS_P2;Temp;Humidity;BMP_temperature;BMP_pressure;BME280_temperature;BME280_humidity;BME280_pressure;Samples;Min_cycle;Max_cycle;Signal;HPM_P1;HPM_P2
2022/08/10 00:01:07;;;;;;;2.92;2.72;;;18.00;96.20;;;;;;5027853;28;20037;-71
2022/08/10 00:03:38;;;;;;;2.47;2.28;;;18.10;96.30;;;;;;5044990;28;20069;-71
2022/08/10 00:06:10;;;;;;;3.15;2.40;;;18.10;96.10;;;;;;5046121;28;20075;-72
2022/08/10 00:08:42;;;;;;;3.30;2.45;;;18.20;96.20;;;;;;5044704;28;20040;-71
2022/08/10 00:11:14;;;;;;;4.35;2.50;;;18.20;96.20;;;;;;5026764;28;20545;-72
2022/08/10 00:13:46;;;;;;;4.45;3.55;;;18.20;96.10;;;;;;5021333;28;20566;-72
2022/08/10 00:16:18;;;;;;;5.55;4.35;;;18.10;96.50;;;;;;5027397;28;20045;-71
2022/08/10 00:18:49;;;;;;;4.53;4.00;;;18.10;96.80;;;;;;5025842;28;20037;-71
2022/08/10 00:21:21;;;;;;;4.00;3.60;;;18.10;96.90;;;;;;5028375;28;20052;-71
2022/08/10 00:23:53;;;;;;;4.03;3.72;;;18.00;97.00;;;;;;5045870;28;20036;-72
2022/08/10 00:26:25;;;;;;;4.63;3.90;;;18.00;97.50;;;;;;5045877;28;20041;-72
2022/08/10 00:28:56;;;;;;;5.03;4.13;;;18.00;97.40;;;;;;5030778;28;20044;-72
2022/08/10 00:31:28;;;;;;;4.07;3.78;;;17.90;97.50;;;;;;5040616;28;20049;-72
2022/08/10 00:34:00;;;;;;;6.15;3.72;;;17.90;97.70;;;;;;5047168;28;20045;-71
2022/08/10 00:36:32;;;;;;;5.20;3.80;;;17.90;98.20;;;;;;5031248;28;20047;-71
2022/08/10 00:39:03;;;;;;;4.75;4.13;;;17.80;98.70;;;;;;5045419;28;20056;-71
2022/08/10 00:41:35;;;;;;;6.80;4.00;;;17.60;99.20;;;;;;5023444;28;20558;-72
2022/08/10 00:44:07;;;;;;;6.35;3.78;;;17.60;99.60;;;;;;5042654;28;20380;-71
2022/08/10 00:46:38;;;;;;;3.55;3.13;;;17.50;99.90;;;;;;5027674;28;20029;-72
2022/08/10 00:49:11;;;;;;;2.75;2.55;;;17.40;99.90;;;;;;5032814;28;20059;-71
2022/08/10 00:51:42;;;;;;;3.67;3.03;;;17.40;99.90;;;;;;5052369;28;20454;-72
2022/08/10 00:54:15;;;;;;;3.20;2.90;;;17.30;99.90;;;;;;5028619;28;20049;-72
2022/08/10 00:56:47;;;;;;;3.30;3.00;;;17.20;99.90;;;;;;5030811;28;20045;-71
2022/08/10 00:59:14;;;;;;;3.63;3.33;;;17.20;99.90;;;;;;5032293;28;20042;-71
2022/08/10 01:01:45;;;;;;;3.58;2.95;;;17.10;99.90;;;;;;5054727;23;20047;-71
2022/08/10 01:04:17;;;;;;;3.58;2.80;;;17.10;99.90;;;;;;5022159;28;20029;-74
2022/08/10 01:07:06;;;;;;;3.00;2.70;;;17.10;99.90;;;;;;5010125;28;20038;-71
2022/08/10 01:10:01;;;;;;;3.13;2.90;;;17.00;99.90;;;;;;5022522;28;20131;-71
2022/08/10 01:12:35;;;;;;;2.90;2.65;;;17.00;99.90;;;;;;5010341;28;20056;-71
2022/08/10 01:15:07;;;;;;;;;;;16.90;99.90;;;;;;5023260;28;20084;-70
2022/08/10 01:17:51;;;;;;;2.95;2.75;;;16.80;99.90;;;;;;5024960;28;19925;-71
2022/08/10 01:20:47;;;;;;;3.22;2.92;;;16.80;99.90;;;;;;5017041;28;20053;-71
2022/08/10 01:23:37;;;;;;;4.95;3.60;;;16.70;99.90;;;;;;5011629;28;20037;-71
2022/08/10 01:26:17;;;;;;;3.17;2.88;;;16.60;99.90;;;;;;5018363;28;20038;-71
2022/08/10 01:29:21;;;;;;;8.90;2.80;;;16.60;99.90;;;;;;5021764;28;20043;-71
2022/08/10 01:31:59;;;;;;;3.03;2.83;;;16.60;99.90;;;;;;5022365;28;20064;-72
2022/08/10 01:34:49;;;;;;;3.38;2.90;;;16.50;99.90;;;;;;5025672;28;20046;-71
2022/08/10 01:37:29;;;;;;;3.45;3.15;;;16.50;99.90;;;;;;5024179;28;20041;-70
2022/08/10 01:40:03;;;;;;;2.88;2.67;;;16.40;99.90;;;;;;5024647;28;20526;-70
2022/08/10 01:42:37;;;;;;;4.47;3.08;;;16.30;99.90;;;;;;5015172;28;20025;-70
2022/08/10 01:45:11;;;;;;;4.53;3.30;;;16.30;99.90;;;;;;5011589;28;20033;-70
2022/08/10 01:50:43;;;;;;;3.97;3.53;;;16.40;99.90;;;;;;5022476;28;20041;-71
2022/08/10 01:53:20;;;;;;;3.63;3.30;;;16.40;99.90;;;;;;5013836;28;20083;-71
2022/08/10 01:55:54;;;;;;;4.03;3.63;;;16.50;99.90;;;;;;5020993;28;20112;-70
2022/08/10 01:58:28;;;;;;;3.50;3.20;;;16.50;99.90;;;;;;5019941;28;20045;-70
2022/08/10 02:01:01;;;;;;;4.15;3.60;;;16.60;99.90;;;;;;5023878;28;20048;-71
2022/08/10 02:03:35;;;;;;;7.38;4.57;;;16.60;99.90;;;;;;5021246;28;20041;-70
2022/08/10 02:06:08;;;;;;;5.03;4.28;;;16.60;99.90;;;;;;5023834;28;20038;-70
2022/08/10 02:08:41;;;;;;;4.10;3.80;;;16.60;99.90;;;;;;5021539;28;20038;-72
2022/08/10 02:11:14;;;;;;;4.80;4.30;;;16.50;99.90;;;;;;5021493;28;20470;-71
2022/08/10 02:13:47;;;;;;;4.35;3.95;;;16.50;99.90;;;;;;5027196;28;20515;-71
2022/08/10 02:16:20;;;;;;;5.40;4.38;;;16.50;99.90;;;;;;5020769;28;20048;-71
2022/08/10 02:18:55;;;;;;;4.97;4.03;;;16.50;99.90;;;;;;4998318;28;20042;-70
2022/08/10 02:21:28;;;;;;;5.90;4.50;;;16.40;99.90;;;;;;5021789;28;20045;-72
2022/08/10 02:24:01;;;;;;;5.03;4.60;;;16.40;99.90;;;;;;5023370;28;20049;-70
2022/08/10 02:26:34;;;;;;;7.10;5.65;;;16.30;99.90;;;;;;5011423;28;20117;-70
2022/08/10 02:29:07;;;;;;;5.70;4.63;;;16.20;99.90;;;;;;5021381;28;20052;-71
2022/08/10 02:31:41;;;;;;;4.43;4.03;;;16.20;99.90;;;;;;5022514;28;20165;-71
2022/08/10 02:34:14;;;;;;;4.78;4.35;;;16.20;99.90;;;;;;5004264;28;20136;-71
2022/08/10 02:36:46;;;;;;;5.53;4.70;;;16.20;99.90;;;;;;5000199;28;20041;-71
2022/08/10 02:39:20;;;;;;;6.22;4.13;;;16.20;99.90;;;;;;5016779;28;20077;-71
2022/08/10 02:42:01;;;;;;;5.05;4.55;;;16.20;99.90;;;;;;5029871;28;20075;-70
2022/08/10 02:44:48;;;;;;;4.82;4.43;;;16.20;99.90;;;;;;5027677;28;20044;-71
2022/08/10 02:47:27;;;;;;;5.25;4.85;;;16.30;99.90;;;;;;5027899;28;20046;-71
2022/08/10 02:50:13;;;;;;;4.95;3.95;;;16.30;99.90;;;;;;5021678;28;20041;-71
2022/08/10 02:52:56;;;;;;;4.55;4.15;;;16.30;99.90;;;;;;5021371;28;20520;-72
2022/08/10 02:55:43;;;;;;;4.32;3.92;;;16.20;99.90;;;;;;5028651;28;20061;-71
2022/08/10 02:58:22;;;;;;;5.00;4.50;;;16.20;99.90;;;;;;5021595;28;20042;-71
2022/08/10 03:00:55;;;;;;;4.35;4.03;;;16.10;99.90;;;;;;5025632;28;20060;-71
2022/08/10 03:03:32;;;;;;;4.55;4.15;;;16.10;99.90;;;;;;5008987;28;20038;-73
2022/08/10 03:06:09;;;;;;;5.00;4.20;;;16.10;99.90;;;;;;5027456;28;20045;-73
2022/08/10 03:08:43;;;;;;;4.47;4.15;;;16.00;99.90;;;;;;5003684;28;20071;-74
2022/08/10 03:11:22;;;;;;;4.40;4.03;;;15.90;99.90;;;;;;5023796;28;20038;-73
2022/08/10 03:13:56;;;;;;;4.32;3.92;;;15.80;99.90;;;;;;5009474;28;20114;-71
2022/08/10 03:16:30;;;;;;;4.55;4.13;;;15.80;99.90;;;;;;5014742;28;20048;-71
2022/08/10 03:19:05;;;;;;;4.53;4.00;;;15.80;99.90;;;;;;5020491;28;20046;-70
2022/08/10 03:21:37;;;;;;;4.50;4.10;;;15.70;99.90;;;;;;5022746;28;20509;-73
2022/08/10 03:24:10;;;;;;;4.30;3.83;;;15.60;99.90;;;;;;5007565;28;20109;-73
2022/08/10 03:26:42;;;;;;;5.63;4.15;;;15.50;99.90;;;;;;5028578;28;20036;-71
2022/08/10 03:29:15;;;;;;;3.80;3.45;;;15.50;99.90;;;;;;5007279;28;20056;-70
2022/08/10 03:31:49;;;;;;;3.88;3.58;;;15.70;99.90;;;;;;5025885;28;20045;-70
2022/08/10 03:34:22;;;;;;;4.57;4.05;;;15.90;99.90;;;;;;5026080;28;20046;-73
2022/08/10 03:36:53;;;;;;;3.60;3.30;;;15.90;99.90;;;;;;5023111;28;20038;-72
2022/08/10 03:39:25;;;;;;;4.53;4.18;;;15.90;99.90;;;;;;5032670;28;20053;-70
2022/08/10 03:42:01;;;;;;;4.20;3.80;;;15.80;99.90;;;;;;5017305;28;20034;-72
2022/08/10 03:44:35;;;;;;;4.53;3.88;;;15.80;99.90;;;;;;5025079;28;20127;-70
2022/08/10 03:47:09;;;;;;;6.30;3.55;;;15.70;99.90;;;;;;5024811;28;20411;-73
2022/08/10 03:49:42;;;;;;;4.75;4.25;;;15.70;99.90;;;;;;5027787;28;20045;-73
2022/08/10 03:52:10;;;;;;;4.95;4.10;;;15.60;99.90;;;;;;5025591;28;20043;-72
2022/08/10 03:54:37;;;;;;;5.20;3.65;;;15.50;99.90;;;;;;5025584;28;20048;-73
2022/08/10 03:57:09;;;;;;;4.25;3.85;;;15.40;99.90;;;;;;5025682;28;20052;-76
2022/08/10 03:59:41;;;;;;;4.23;3.90;;;15.40;99.90;;;;;;5023381;28;20076;-73
2022/08/10 04:02:13;;;;;;;4.40;4.00;;;15.30;99.90;;;;;;5027938;28;20046;-72
2022/08/10 04:04:46;;;;;;;6.50;4.18;;;15.30;99.90;;;;;;5028656;28;20037;-73
2022/08/10 04:07:17;;;;;;;4.53;4.13;;;15.30;99.90;;;;;;5024242;28;20038;-75
2022/08/10 04:09:50;;;;;;;4.47;4.10;;;15.20;99.90;;;;;;5029715;28;20400;-73
2022/08/10 04:12:25;;;;;;;4.90;4.50;;;15.20;99.90;;;;;;5027525;28;20850;-73
2022/08/10 04:14:56;;;;;;;5.35;4.15;;;15.10;99.90;;;;;;5027589;28;20069;-70
2022/08/10 04:17:28;;;;;;;4.85;4.30;;;14.90;99.90;;;;;;5024078;28;20069;-71
2022/08/10 04:20:01;;;;;;;4.13;3.72;;;14.90;99.90;;;;;;5021597;28;20506;-70
2022/08/10 04:22:35;;;;;;;4.20;3.78;;;14.80;99.90;;;;;;5021024;28;20033;-69
2022/08/10 04:25:07;;;;;;;;;;;14.80;99.90;;;;;;5022959;28;20065;-70
2022/08/10 04:27:39;;;;;;;5.68;4.15;;;14.70;99.90;;;;;;5032171;28;20393;-70
2022/08/10 04:30:11;;;;;;;4.60;4.20;;;14.70;99.90;;;;;;5024242;28;20069;-71
2022/08/10 04:32:45;;;;;;;4.53;4.10;;;14.70;99.90;;;;;;5021412;28;20040;-70
2022/08/10 04:35:19;;;;;;;3.85;3.55;;;14.70;99.90;;;;;;5030037;28;20112;-70
2022/08/10 04:37:53;;;;;;;6.05;3.78;;;14.70;99.90;;;;;;5034432;28;20049;-72
2022/08/10 04:40:26;;;;;;;5.40;3.83;;;14.70;99.90;;;;;;5041514;28;20061;-70
2022/08/10 04:43:03;;;;;;;4.88;3.70;;;14.70;99.90;;;;;;5036079;28;20046;-70
2022/08/10 04:45:35;;;;;;;6.78;3.75;;;14.70;99.90;;;;;;5028054;28;20041;-70
2022/08/10 04:48:06;;;;;;;4.07;3.67;;;14.70;99.90;;;;;;5020787;28;20050;-71
2022/08/10 04:50:38;;;;;;;3.63;3.33;;;14.70;99.90;;;;;;5004629;28;20065;-71
2022/08/10 04:53:05;;;;;;;4.07;3.67;;;14.70;99.90;;;;;;5029897;28;20483;-70
2022/08/10 04:55:36;;;;;;;9.95;3.83;;;14.70;99.90;;;;;;5024461;28;20040;-71
2022/08/10 04:58:08;;;;;;;7.03;3.63;;;14.70;99.90;;;;;;5024939;28;20545;-72
2022/08/10 05:00:40;;;;;;;6.00;3.30;;;14.80;99.90;;;;;;5022377;28;20037;-71
2022/08/10 05:03:12;;;;;;;10.63;3.88;;;14.80;99.90;;;;;;5027369;28;20085;-71
2022/08/10 05:05:44;;;;;;;8.65;3.50;;;14.90;99.90;;;;;;5027459;28;20041;-71
2022/08/10 05:08:16;;;;;;;7.93;4.05;;;14.90;99.90;;;;;;5025120;28;20045;-71
2022/08/10 05:10:42;;;;;;;7.28;3.83;;;15.00;99.90;;;;;;5025609;28;20095;-71
2022/08/10 05:13:14;;;;;;;9.35;3.75;;;15.00;99.90;;;;;;5014780;28;20048;-71
2022/08/10 05:15:42;;;;;;;5.93;3.50;;;15.10;99.90;;;;;;5026203;28;20037;-71
2022/08/10 05:18:14;;;;;;;6.03;3.60;;;15.20;99.90;;;;;;5019517;28;20048;-72
2022/08/10 05:20:46;;;;;;;7.22;3.45;;;15.20;99.90;;;;;;5029289;28;20049;-70
2022/08/10 05:23:18;;;;;;;6.47;3.60;;;15.30;99.90;;;;;;5018477;28;20046;-71
2022/08/10 05:25:49;;;;;;;6.38;3.80;;;15.40;99.90;;;;;;5027916;28;20410;-71
2022/08/10 05:28:21;;;;;;;3.75;3.45;;;15.40;99.90;;;;;;5024489;28;20044;-72
2022/08/10 05:30:53;;;;;;;4.55;4.10;;;15.50;99.90;;;;;;5021519;28;20053;-71
2022/08/10 05:33:19;;;;;;;6.50;4.25;;;15.60;99.90;;;;;;5022055;28;20042;-71
2022/08/10 05:35:51;;;;;;;5.10;4.60;;;15.60;99.90;;;;;;5029299;28;20127;-71
2022/08/10 05:38:25;;;;;;;6.07;4.20;;;15.70;99.90;;;;;;5024233;28;20069;-71
2022/08/10 05:40:57;;;;;;;6.28;4.75;;;15.80;99.90;;;;;;5017482;28;20832;-71
2022/08/10 05:43:29;;;;;;;5.60;4.57;;;15.80;99.90;;;;;;5024169;28;20069;-71
2022/08/10 05:45:55;;;;;;;5.50;5.00;;;15.90;99.90;;;;;;5012402;28;20088;-71
2022/08/10 05:48:27;;;;;;;5.22;4.15;;;16.00;99.90;;;;;;5018417;28;20581;-71
2022/08/10 05:50:59;;;;;;;4.82;4.20;;;16.00;99.90;;;;;;5008621;28;20046;-71
2022/08/10 05:53:32;;;;;;;5.75;3.95;;;16.10;99.90;;;;;;5022784;28;20039;-71
2022/08/10 05:56:06;;;;;;;4.10;3.77;;;16.20;99.90;;;;;;5026134;28;20074;-71
2022/08/10 05:58:38;;;;;;;4.32;3.85;;;16.20;99.90;;;;;;5021492;28;20290;-71
2022/08/10 06:01:13;;;;;;;5.18;3.65;;;16.30;99.90;;;;;;5027701;28;20055;-71
2022/08/10 06:03:50;;;;;;;5.70;4.03;;;16.40;99.90;;;;;;5027757;28;20033;-70
2022/08/10 06:06:22;;;;;;;3.70;3.30;;;16.40;99.90;;;;;;5020923;28;20048;-72
2022/08/10 06:08:57;;;;;;;5.07;3.38;;;16.50;99.90;;;;;;5023551;28;20542;-72
2022/08/10 06:11:30;;;;;;;5.93;3.90;;;16.60;99.90;;;;;;5021798;28;20047;-71
2022/08/10 06:16:55;;;;;;;7.93;4.82;;;16.70;99.90;;;;;;5024309;28;20075;-71
2022/08/10 06:19:28;;;;;;;4.90;4.50;;;16.80;99.90;;;;;;5025912;28;20384;-71
2022/08/10 06:22:01;;;;;;;4.77;3.73;;;16.80;99.90;;;;;;5030920;28;20051;-72
2022/08/10 06:24:39;;;;;;;4.05;3.35;;;16.90;99.90;;;;;;5025937;28;20040;-72
2022/08/10 06:27:09;;;;;;;3.88;3.50;;;17.00;99.90;;;;;;5027413;28;20041;-72
2022/08/10 06:29:42;;;;;;;4.43;3.45;;;17.00;99.90;;;;;;5009266;28;20045;-72
2022/08/10 06:32:16;;;;;;;4.93;3.25;;;17.20;99.90;;;;;;5017125;28;20038;-71
2022/08/10 06:34:49;;;;;;;;;;;17.20;99.90;;;;;;5026641;28;20040;-71
2022/08/10 06:37:26;;;;;;;3.08;2.85;;;17.30;99.90;;;;;;5027962;28;20326;-71
2022/08/10 06:39:57;;;;;;;6.18;2.88;;;17.50;99.90;;;;;;5027495;28;20052;-71
2022/08/10 06:42:39;;;;;;;5.28;2.28;;;17.60;99.90;;;;;;5023003;28;20045;-71
2022/08/10 06:45:16;;;;;;;2.65;2.38;;;17.70;99.90;;;;;;5025466;28;20033;-72
2022/08/10 06:47:59;;;;;;;3.83;2.35;;;17.80;99.90;;;;;;5026592;28;20042;-72
2022/08/10 06:50:38;;;;;;;3.63;2.60;;;18.00;99.90;;;;;;5020554;28;20503;-70
2022/08/10 06:53:18;;;;;;;2.70;2.33;;;18.10;99.90;;;;;;5025174;28;20045;-72
2022/08/10 06:55:58;;;;;;;3.67;2.28;;;18.30;99.90;;;;;;5026351;28;20068;-72
2022/08/10 06:58:42;;;;;;;4.93;2.08;;;18.40;99.90;;;;;;5026961;28;20045;-72
2022/08/10 07:01:19;;;;;;;3.08;2.35;;;18.60;99.90;;;;;;5025920;28;20034;-71
2022/08/10 07:03:58;;;;;;;3.28;1.95;;;18.70;99.90;;;;;;5024475;28;20065;-71
2022/08/10 07:06:33;;;;;;;3.92;1.88;;;18.80;99.90;;;;;;5066476;22;20036;-72
2022/08/10 07:09:08;;;;;;;7.03;2.45;;;18.90;99.90;;;;;;5059461;28;20063;-71
2022/08/10 07:11:45;;;;;;;3.58;2.10;;;19.00;99.90;;;;;;5058797;28;20486;-72
2022/08/10 07:14:18;;;;;;;2.78;2.17;;;19.20;99.90;;;;;;5043494;28;20052;-72
2022/08/10 07:16:50;;;;;;;2.37;2.17;;;19.30;99.90;;;;;;5034772;28;20070;-72
2022/08/10 07:19:24;;;;;;;4.10;2.13;;;19.30;99.90;;;;;;5052720;28;20389;-72
2022/08/10 07:21:58;;;;;;;5.20;2.33;;;19.40;99.90;;;;;;5065574;28;20127;-72
2022/08/10 07:24:32;;;;;;;2.88;1.70;;;19.60;99.90;;;;;;5074508;28;20040;-72
2022/08/10 07:27:05;;;;;;;3.47;2.22;;;19.70;99.90;;;;;;5046734;28;20119;-72
2022/08/10 07:29:39;;;;;;;;;;;19.80;99.90;;;;;;5047179;28;20040;-72
2022/08/10 07:32:12;;;;;;;4.22;2.25;;;19.90;99.90;;;;;;5059551;28;19928;-72
2022/08/10 07:34:46;;;;;;;3.72;2.00;;;20.00;99.90;;;;;;5033309;28;20068;-72
2022/08/10 07:37:21;;;;;;;4.32;2.00;;;20.10;99.90;;;;;;5077222;28;20084;-72
2022/08/10 07:39:54;;;;;;;3.90;2.05;;;20.30;99.90;;;;;;5053898;28;20037;-72
2022/08/10 07:42:28;;;;;;;3.17;2.20;;;20.40;99.90;;;;;;5061083;28;20036;-72
2022/08/10 07:45:02;;;;;;;5.18;2.00;;;20.40;99.90;;;;;;5060597;28;20105;-71
2022/08/10 07:47:40;;;;;;;2.80;2.28;;;20.60;99.90;;;;;;5071473;28;20033;-72
2022/08/10 07:50:15;;;;;;;5.35;1.77;;;20.70;99.90;;;;;;5074867;28;20033;-72
2022/08/10 07:52:48;;;;;;;2.58;2.30;;;20.80;99.90;;;;;;5077286;28;20498;-72
2022/08/10 07:55:20;;;;;;;3.25;1.88;;;20.90;99.90;;;;;;5041197;28;20508;-72
2022/08/10 07:57:55;;;;;;;3.87;2.00;;;21.00;99.90;;;;;;5078305;28;20059;-72
2022/08/10 08:00:30;;;;;;;7.43;2.05;;;21.10;99.90;;;;;;5084089;28;20055;-71
2022/08/10 08:03:02;;;;;;;3.97;2.03;;;21.30;99.90;;;;;;5088487;28;20066;-72
2022/08/10 08:05:34;;;;;;;4.63;1.92;;;21.30;99.90;;;;;;5071393;28;20035;-72
2022/08/10 08:08:07;;;;;;;5.88;2.20;;;21.50;99.90;;;;;;5061621;28;20032;-73
2022/08/10 08:10:40;;;;;;;4.70;2.28;;;21.60;99.90;;;;;;5067910;28;20047;-72
2022/08/10 08:13:13;;;;;;;3.13;2.00;;;21.60;99.50;;;;;;5060757;28;20062;-72
2022/08/10 08:15:46;;;;;;;3.80;2.30;;;21.80;98.80;;;;;;5077521;28;20389;-72
2022/08/10 08:18:21;;;;;;;3.00;1.85;;;21.90;99.50;;;;;;5046357;28;20041;-72
2022/08/10 08:20:53;;;;;;;2.85;1.67;;;22.00;98.00;;;;;;5078205;28;20114;-72
2022/08/10 08:23:27;;;;;;;2.10;1.60;;;22.10;97.50;;;;;;5057231;28;20046;-71
2022/08/10 08:26:00;;;;;;;3.70;1.80;;;22.20;96.90;;;;;;5061399;28;20067;-72
2022/08/10 08:28:33;;;;;;;4.53;1.90;;;22.20;96.90;;;;;;5057162;28;20040;-72
2022/08/10 08:31:05;;;;;;;5.57;2.58;;;22.40;97.00;;;;;;5052029;28;20051;-72
2022/08/10 08:33:37;;;;;;;2.92;2.05;;;22.50;96.20;;;;;;5079423;28;20055;-71
2022/08/10 08:36:11;;;;;;;4.18;1.73;;;22.70;96.10;;;;;;5049749;28;20044;-72
2022/08/10 08:38:43;;;;;;;3.95;1.67;;;22.80;95.40;;;;;;5042534;28;20044;-72
2022/08/10 08:41:24;;;;;;;4.65;1.63;;;22.90;94.20;;;;;;5062209;28;20062;-72
2022/08/10 08:44:14;;;;;;;4.82;2.17;;;23.00;94.20;;;;;;5060373;28;20041;-72
2022/08/10 08:47:22;;;;;;;2.13;1.40;;;23.10;93.70;;;;;;5051129;28;20041;-73
2022/08/10 08:49:57;;;;;;;5.68;1.70;;;23.20;93.40;;;;;;5035050;28;20035;-72
2022/08/10 08:53:00;;;;;;;3.53;2.17;;;23.30;93.70;;;;;;5053814;28;20041;-73
2022/08/10 08:56:00;;;;;;;2.60;1.77;;;23.40;92.50;;;;;;5078475;28;20032;-72
2022/08/10 08:59:09;;;;;;;4.75;1.80;;;23.50;92.80;;;;;;5043472;28;20085;-72
2022/08/10 09:02:07;;;;;;;2.53;1.60;;;23.60;92.30;;;;;;5061095;28;20040;-72
2022/08/10 09:04:51;;;;;;;2.17;1.50;;;23.70;91.30;;;;;;5046072;28;20052;-72
2022/08/10 09:07:38;;;;;;;3.42;1.40;;;23.80;91.20;;;;;;5076919;28;20051;-72
2022/08/10 09:10:32;;;;;;;4.80;1.70;;;23.80;90.80;;;;;;5049995;28;20037;-72
2022/08/10 09:13:30;;;;;;;5.70;1.73;;;24.00;91.30;;;;;;5064333;28;20047;-72
2022/08/10 09:16:07;;;;;;;3.35;1.70;;;24.10;90.40;;;;;;5069760;28;20055;-72
2022/08/10 09:19:01;;;;;;;6.28;1.80;;;24.10;91.00;;;;;;5054329;28;20511;-72
2022/08/10 09:21:46;;;;;;;;;;;24.10;88.70;;;;;;5053449;28;20036;-72
2022/08/10 09:24:49;;;;;;;2.67;1.70;;;24.30;88.10;;;;;;5060594;28;19924;-72
2022/08/10 09:27:32;;;;;;;3.03;1.60;;;24.40;87.10;;;;;;5057017;28;20533;-72
2022/08/10 09:30:09;;;;;;;;;;;24.40;86.50;;;;;;5069364;28;20472;-73
2022/08/10 09:32:52;;;;;;;2.40;1.85;;;24.50;87.10;;;;;;5053860;28;20650;-72
2022/08/10 09:35:28;;;;;;;5.90;1.67;;;24.70;86.50;;;;;;5034055;28;20056;-72
2022/08/10 09:38:10;;;;;;;2.53;1.75;;;24.80;85.00;;;;;;5055608;28;20056;-72
2022/08/10 09:41:14;;;;;;;1.98;1.70;;;24.80;82.00;;;;;;5074514;28;20082;-72
2022/08/10 09:44:04;;;;;;;2.85;1.40;;;24.80;82.20;;;;;;5035062;28;20048;-72
2022/08/10 09:46:54;;;;;;;1.95;1.52;;;25.00;81.70;;;;;;5033280;28;20041;-72
2022/08/10 09:49:52;;;;;;;2.22;1.40;;;25.10;82.20;;;;;;5051568;28;20032;-72
2022/08/10 09:52:59;;;;;;;7.10;1.95;;;25.20;79.00;;;;;;5075030;28;20032;-72
2022/08/10 09:55:49;;;;;;;6.53;1.80;;;25.30;79.10;;;;;;5052471;28;20040;-72
2022/08/10 09:59:00;;;;;;;1.95;1.63;;;25.30;77.60;;;;;;5038413;28;20040;-72
2022/08/10 10:01:52;;;;;;;2.92;1.98;;;25.30;78.40;;;;;;5050678;28;20036;-72
2022/08/10 10:04:37;;;;;;;5.80;2.03;;;25.50;79.00;;;;;;5054732;28;20040;-72
2022/08/10 10:07:15;;;;;;;4.05;1.70;;;25.60;77.00;;;;;;5055416;28;20304;-72
2022/08/10 10:10:06;;;;;;;3.05;1.60;;;25.60;75.70;;;;;;5055858;28;20036;-72
2022/08/10 10:12:43;;;;;;;5.53;1.80;;;25.60;74.50;;;;;;5058673;28;20032;-71
2022/08/10 10:15:33;;;;;;;5.32;1.30;;;25.70;74.00;;;;;;5076442;28;20054;-72
2022/08/10 10:18:33;;;;;;;4.25;1.83;;;25.80;75.40;;;;;;5079012;28;20093;-71
2022/08/10 10:21:14;;;;;;;4.82;1.30;;;25.80;73.90;;;;;;5058672;28;20086;-72
2022/08/10 10:24:05;;;;;;;4.80;1.70;;;26.00;72.20;;;;;;5059336;28;20525;-72
2022/08/10 10:27:18;;;;;;;3.05;1.38;;;26.10;72.80;;;;;;5039046;28;20043;-72
2022/08/10 10:30:03;;;;;;;5.47;1.70;;;26.20;73.30;;;;;;5042679;28;20063;-72
2022/08/10 10:32:33;;;;;;;2.35;1.48;;;26.30;72.20;;;;;;5049969;28;20152;-72
2022/08/10 10:35:22;;;;;;;3.47;1.75;;;26.40;69.60;;;;;;5070631;28;20056;-72
2022/08/10 10:37:56;;;;;;;4.68;2.10;;;26.50;70.00;;;;;;5044288;28;20068;-72
2022/08/10 10:40:40;;;;;;;2.60;1.45;;;26.40;68.40;;;;;;5053131;28;20043;-72
2022/08/10 10:43:39;;;;;;;2.95;1.67;;;26.40;69.10;;;;;;5050473;28;20136;-72
2022/08/10 10:46:28;;;;;;;1.85;1.23;;;26.40;68.70;;;;;;5035107;28;20371;-72
2022/08/10 10:49:26;;;;;;;2.08;1.30;;;26.50;68.30;;;;;;5059217;28;20051;-72
2022/08/10 10:52:16;;;;;;;3.88;1.63;;;26.60;67.60;;;;;;5070988;28;20040;-72
2022/08/10 10:55:09;;;;;;;2.85;1.40;;;26.60;65.50;;;;;;5072720;28;20052;-72
2022/08/10 10:58:08;;;;;;;1.88;1.40;;;26.70;65.10;;;;;;5051360;28;20067;-72
2022/08/10 11:01:21;;;;;;;4.07;1.30;;;26.80;65.00;;;;;;5056971;28;20050;-72
2022/08/10 11:04:19;;;;;;;3.58;1.50;;;26.80;64.30;;;;;;5072166;28;20036;-72
2022/08/10 11:07:10;;;;;;;4.03;1.77;;;26.90;65.20;;;;;;5068667;28;20046;-72
2022/08/10 11:09:53;;;;;;;5.10;1.92;;;26.90;66.40;;;;;;5078496;28;20033;-72
2022/08/10 11:12:35;;;;;;;6.15;1.60;;;27.00;67.40;;;;;;5071249;28;20032;-72
2022/08/10 11:15:33;;;;;;;2.00;1.30;;;27.20;67.10;;;;;;5074893;28;20520;-72
2022/08/10 11:18:17;;;;;;;2.28;1.52;;;27.40;66.00;;;;;;5053130;28;20048;-72
2022/08/10 11:21:23;;;;;;;5.00;1.52;;;27.30;63.60;;;;;;5073127;28;20047;-72
2022/08/10 11:24:13;;;;;;;1.98;1.23;;;27.30;61.90;;;;;;5082579;28;20047;-72
2022/08/10 11:27:11;;;;;;;2.55;1.70;;;27.40;64.20;;;;;;5077030;28;20037;-72
2022/08/10 11:29:51;;;;;;;10.13;2.53;;;27.40;62.20;;;;;;5056788;28;20068;-72
2022/08/10 11:32:49;;;;;;;3.95;1.88;;;27.50;60.40;;;;;;5063572;28;20067;-72
2022/08/10 11:35:46;;;;;;;2.92;1.40;;;27.50;60.00;;;;;;5060906;28;20036;-72
2022/08/10 11:38:40;;;;;;;3.22;1.38;;;27.60;59.60;;;;;;5057135;28;20044;-72
2022/08/10 11:41:45;;;;;;;3.53;1.20;;;27.60;58.80;;;;;;5066157;28;20040;-72
2022/08/10 11:44:55;;;;;;;2.75;1.30;;;27.70;58.80;;;;;;5056014;28;20391;-72
2022/08/10 11:47:38;;;;;;;2.63;1.15;;;27.60;58.10;;;;;;5056593;28;20052;-72
2022/08/10 11:50:20;;;;;;;2.08;1.00;;;27.70;58.90;;;;;;5059764;28;20036;-72
2022/08/10 11:53:23;;;;;;;4.40;1.77;;;27.70;59.60;;;;;;5045156;28;20045;-72
2022/08/10 11:55:57;;;;;;;4.30;1.77;;;27.80;60.70;;;;;;5057980;28;20051;-72
2022/08/10 12:01:29;;;;;;;5.15;1.65;;;27.90;59.50;;;;;;5075013;28;20046;-73
2022/08/10 12:04:06;;;;;;;2.30;1.13;;;27.90;56.00;;;;;;5079309;28;20052;-72
2022/08/10 12:06:40;;;;;;;2.45;1.27;;;27.90;57.40;;;;;;5059216;28;20123;-72
2022/08/10 12:09:13;;;;;;;4.55;1.67;;;27.90;58.60;;;;;;5074851;28;20036;-72
2022/08/10 12:11:47;;;;;;;2.75;1.30;;;27.80;58.20;;;;;;5033247;28;20047;-72
2022/08/10 12:14:27;;;;;;;1.65;1.13;;;27.90;59.20;;;;;;5080163;28;20040;-72
2022/08/10 12:17:04;;;;;;;2.05;1.33;;;28.00;56.00;;;;;;5076932;28;20040;-72
2022/08/10 12:19:51;;;;;;;2.50;1.08;;;28.00;56.00;;;;;;5036570;28;20703;-72
2022/08/10 12:22:29;;;;;;;3.03;1.20;;;28.00;57.10;;;;;;5021929;28;20072;-73
2022/08/10 12:25:06;;;;;;;3.90;1.38;;;28.00;57.30;;;;;;5048108;28;20041;-72
2022/08/10 12:27:44;;;;;;;1.90;1.40;;;28.10;57.20;;;;;;5056659;28;20140;-72
2022/08/10 12:30:21;;;;;;;2.78;1.42;;;28.20;56.30;;;;;;5080374;28;20044;-72
2022/08/10 12:32:55;;;;;;;3.30;1.23;;;28.20;57.00;;;;;;5064954;28;20045;-72
2022/08/10 12:35:44;;;;;;;3.63;1.20;;;28.20;57.40;;;;;;5058564;28;20045;-72
2022/08/10 12:38:22;;;;;;;1.67;1.20;;;28.30;56.40;;;;;;5061667;28;20549;-72
2022/08/10 12:41:00;;;;;;;3.58;1.73;;;28.40;54.50;;;;;;5055919;28;20120;-72
2022/08/10 12:43:57;;;;;;;2.35;1.52;;;28.30;54.00;;;;;;5066733;28;20098;-73
2022/08/10 12:46:57;;;;;;;2.60;1.30;;;28.30;55.00;;;;;;5063148;28;20037;-74
2022/08/10 12:49:48;;;;;;;2.85;1.30;;;28.40;53.00;;;;;;5039689;28;20043;-73
2022/08/10 12:52:27;;;;;;;3.72;1.40;;;28.40;54.30;;;;;;5023071;28;20044;-75
2022/08/10 12:55:01;;;;;;;1.50;1.08;;;28.50;53.80;;;;;;5064277;28;20046;-72
2022/08/10 12:57:35;;;;;;;2.45;1.27;;;28.50;53.60;;;;;;5054527;28;20561;-72
2022/08/10 13:00:09;;;;;;;1.20;1.10;;;28.60;53.20;;;;;;5085637;28;20068;-72
2022/08/10 13:02:43;;;;;;;2.17;1.15;;;28.60;53.50;;;;;;5073594;28;20044;-72
2022/08/10 13:05:16;;;;;;;7.00;1.50;;;28.60;52.10;;;;;;5063184;28;20051;-72
2022/08/10 13:09:07;;;;;;;2.03;1.20;;;28.70;52.20;;;;;;5058952;28;20044;-72
2022/08/10 13:10:47;;;;;;;2.65;1.30;;;28.70;53.00;;;;;;5078189;28;20040;-72
2022/08/10 13:13:23;;;;;;;3.85;1.33;;;28.80;54.00;;;;;;5063980;28;20131;-72
2022/08/10 13:15:56;;;;;;;2.42;1.30;;;28.80;54.90;;;;;;5076150;28;20442;-72
2022/08/10 13:18:40;;;;;;;2.08;1.27;;;28.90;53.90;;;;;;5060344;28;20044;-72
2022/08/10 13:21:15;;;;;;;3.00;1.00;;;28.80;52.30;;;;;;5069014;28;20053;-72
2022/08/10 13:24:09;;;;;;;3.92;1.10;;;28.90;52.80;;;;;;5062722;28;20782;-72
2022/08/10 13:26:40;;;;;;;1.63;1.15;;;29.00;52.70;;;;;;5067420;28;20115;-72
2022/08/10 13:29:17;;;;;;;5.47;1.50;;;29.00;51.50;;;;;;5079449;28;20112;-72
2022/08/10 13:31:53;;;;;;;2.40;1.40;;;29.10;52.40;;;;;;5058526;28;20124;-72
2022/08/10 13:34:27;;;;;;;2.55;0.82;;;29.10;52.20;;;;;;5073294;28;20057;-72
2022/08/10 13:37:07;;;;;;;1.40;1.27;;;29.20;51.30;;;;;;5056213;28;20040;-72
2022/08/10 13:39:44;;;;;;;2.75;1.17;;;29.20;52.00;;;;;;5079129;28;20040;-72
2022/08/10 13:42:19;;;;;;;1.10;0.98;;;29.30;52.60;;;;;;5059885;28;20047;-72
2022/08/10 13:44:53;;;;;;;3.67;1.58;;;29.40;52.80;;;;;;5041341;28;20093;-72
2022/08/10 13:47:31;;;;;;;2.63;1.30;;;29.50;53.00;;;;;;5059590;28;20039;-72
2022/08/10 13:50:10;;;;;;;1.83;1.27;;;29.50;51.60;;;;;;5049853;28;20075;-72
2022/08/10 13:52:54;;;;;;;2.75;1.23;;;29.50;51.20;;;;;;5062218;28;21007;-72
2022/08/10 13:55:28;;;;;;;3.53;1.15;;;29.40;51.20;;;;;;5048930;28;20537;-72